sensor_id;sensor_type;location;lat;lon;timestamp;temperature;humidity
51815;DHT22;37874;53.158;6.766;2023-08-12T00:01:20;25.90;59.50
51815;DHT22;37874;53.158;6.766;2023-08-12T00:03:47;25.80;59.80
51815;DHT22;37874;53.158;6.766;2023-08-12T00:06:13;25.80;59.50
51815;DHT22;37874;53.158;6.766;2023-08-12T00:08:39;25.80;59.50
51815;DHT22;37874;53.158;6.766;2023-08-12T00:11:05;25.80;59.50
51815;DHT22;37874;53.158;6.766;2023-08-12T00:13:30;25.80;59.50
51815;DHT22;37874;53.158;6.766;2023-08-12T00:15:56;25.80;59.50
51815;DHT22;37874;53.158;6.766;2023-08-12T00:18:22;25.80;59.50
51815;DHT22;37874;53.158;6.766;2023-08-12T00:20:48;25.80;59.60
51815;DHT22;37874;53.158;6.766;2023-08-12T00:23:13;25.70;59.50
51815;DHT22;37874;53.158;6.766;2023-08-12T00:25:39;25.70;59.50
51815;DHT22;37874;53.158;6.766;2023-08-12T00:28:05;25.70;59.50
51815;DHT22;37874;53.158;6.766;2023-08-12T00:30:30;25.70;59.50
51815;DHT22;37874;53.158;6.766;2023-08-12T00:32:56;25.70;59.60
51815;DHT22;37874;53.158;6.766;2023-08-12T00:35:22;25.70;59.60
51815;DHT22;37874;53.158;6.766;2023-08-12T00:37:47;25.70;59.60
51815;DHT22;37874;53.158;6.766;2023-08-12T00:40:13;25.90;59.70
51815;DHT22;37874;53.158;6.766;2023-08-12T00:42:39;25.70;59.60
51815;DHT22;37874;53.158;6.766;2023-08-12T00:45:09;25.70;59.60
51815;DHT22;37874;53.158;6.766;2023-08-12T00:47:35;25.70;59.60
51815;DHT22;37874;53.158;6.766;2023-08-12T00:50:02;25.70;59.60
51815;DHT22;37874;53.158;6.766;2023-08-12T00:52:28;25.70;59.60
51815;DHT22;37874;53.158;6.766;2023-08-12T00:54:54;25.70;59.70
51815;DHT22;37874;53.158;6.766;2023-08-12T00:57:19;25.70;59.60
51815;DHT22;37874;53.158;6.766;2023-08-12T00:59:45;25.60;59.60
51815;DHT22;37874;53.158;6.766;2023-08-12T01:02:12;25.70;59.70
51815;DHT22;37874;53.158;6.766;2023-08-12T01:04:38;25.70;59.60
51815;DHT22;37874;53.158;6.766;2023-08-12T01:07:03;25.70;59.70
51815;DHT22;37874;53.158;6.766;2023-08-12T01:09:30;25.70;59.70
51815;DHT22;37874;53.158;6.766;2023-08-12T01:17:18;25.70;59.70
51815;DHT22;37874;53.158;6.766;2023-08-12T01:19:45;25.70;59.70
51815;DHT22;37874;53.158;6.766;2023-08-12T01:22:12;25.60;59.60
51815;DHT22;37874;53.158;6.766;2023-08-12T01:24:43;25.60;59.70
51815;DHT22;37874;53.158;6.766;2023-08-12T01:27:11;25.60;59.70
51815;DHT22;37874;53.158;6.766;2023-08-12T01:29:49;25.60;59.70
51815;DHT22;37874;53.158;6.766;2023-08-12T01:32:34;25.60;59.70
51815;DHT22;37874;53.158;6.766;2023-08-12T01:37:35;25.60;59.70
51815;DHT22;37874;53.158;6.766;2023-08-12T01:40:03;25.60;59.70
51815;DHT22;37874;53.158;6.766;2023-08-12T01:42:32;25.60;59.70
51815;DHT22;37874;53.158;6.766;2023-08-12T01:44:58;25.60;59.70
51815;DHT22;37874;53.158;6.766;2023-08-12T01:47:25;25.50;59.70
51815;DHT22;37874;53.158;6.766;2023-08-12T01:49:50;25.60;59.80
51815;DHT22;37874;53.158;6.766;2023-08-12T01:52:16;25.60;59.70
51815;DHT22;37874;53.158;6.766;2023-08-12T01:54:41;25.50;59.70
51815;DHT22;37874;53.158;6.766;2023-08-12T01:57:07;25.60;59.70
51815;DHT22;37874;53.158;6.766;2023-08-12T01:59:38;25.50;59.70
51815;DHT22;37874;53.158;6.766;2023-08-12T02:02:03;25.50;59.70
51815;DHT22;37874;53.158;6.766;2023-08-12T02:04:29;25.60;59.80
51815;DHT22;37874;53.158;6.766;2023-08-12T02:06:55;25.50;59.70
51815;DHT22;37874;53.158;6.766;2023-08-12T02:09:21;25.50;59.70
51815;DHT22;37874;53.158;6.766;2023-08-12T02:11:48;25.50;59.70
51815;DHT22;37874;53.158;6.766;2023-08-12T02:14:14;25.40;59.70
51815;DHT22;37874;53.158;6.766;2023-08-12T02:16:39;25.50;59.70
51815;DHT22;37874;53.158;6.766;2023-08-12T02:19:05;25.30;59.60
51815;DHT22;37874;53.158;6.766;2023-08-12T02:21:31;25.50;59.80
51815;DHT22;37874;53.158;6.766;2023-08-12T02:23:57;25.60;59.80
51815;DHT22;37874;53.158;6.766;2023-08-12T02:26:22;25.50;59.70
51815;DHT22;37874;53.158;6.766;2023-08-12T02:28:48;25.50;59.80
51815;DHT22;37874;53.158;6.766;2023-08-12T02:31:14;25.40;59.70
51815;DHT22;37874;53.158;6.766;2023-08-12T02:33:40;25.40;59.70
51815;DHT22;37874;53.158;6.766;2023-08-12T02:36:06;25.40;59.70
51815;DHT22;37874;53.158;6.766;2023-08-12T02:38:31;25.40;59.70
51815;DHT22;37874;53.158;6.766;2023-08-12T02:40:57;25.50;59.80
51815;DHT22;37874;53.158;6.766;2023-08-12T02:43:23;25.60;59.90
51815;DHT22;37874;53.158;6.766;2023-08-12T02:45:48;25.40;59.70
51815;DHT22;37874;53.158;6.766;2023-08-12T02:48:14;25.50;59.80
51815;DHT22;37874;53.158;6.766;2023-08-12T02:50:39;25.40;59.70
51815;DHT22;37874;53.158;6.766;2023-08-12T02:53:06;25.50;59.80
51815;DHT22;37874;53.158;6.766;2023-08-12T02:55:32;25.40;59.80
51815;DHT22;37874;53.158;6.766;2023-08-12T02:57:58;25.40;59.70
51815;DHT22;37874;53.158;6.766;2023-08-12T03:00:24;25.40;59.80
51815;DHT22;37874;53.158;6.766;2023-08-12T03:02:49;25.40;59.80
51815;DHT22;37874;53.158;6.766;2023-08-12T03:05:15;25.40;60.40
51815;DHT22;37874;53.158;6.766;2023-08-12T03:07:41;25.40;59.80
51815;DHT22;37874;53.158;6.766;2023-08-12T03:10:07;25.40;59.80
51815;DHT22;37874;53.158;6.766;2023-08-12T03:12:34;25.40;59.80
51815;DHT22;37874;53.158;6.766;2023-08-12T03:15:00;25.40;59.80
51815;DHT22;37874;53.158;6.766;2023-08-12T03:17:26;25.40;59.80
51815;DHT22;37874;53.158;6.766;2023-08-12T03:19:51;25.40;59.80
51815;DHT22;37874;53.158;6.766;2023-08-12T03:22:20;25.50;59.80
51815;DHT22;37874;53.158;6.766;2023-08-12T03:24:45;25.40;59.80
51815;DHT22;37874;53.158;6.766;2023-08-12T03:27:11;25.40;59.80
51815;DHT22;37874;53.158;6.766;2023-08-12T03:29:37;25.40;59.80
51815;DHT22;37874;53.158;6.766;2023-08-12T03:32:04;25.40;59.80
51815;DHT22;37874;53.158;6.766;2023-08-12T03:34:29;25.40;59.80
51815;DHT22;37874;53.158;6.766;2023-08-12T03:36:55;25.40;59.80
51815;DHT22;37874;53.158;6.766;2023-08-12T03:39:20;25.40;59.80
51815;DHT22;37874;53.158;6.766;2023-08-12T03:41:46;25.40;59.80
51815;DHT22;37874;53.158;6.766;2023-08-12T03:44:12;25.40;59.80
51815;DHT22;37874;53.158;6.766;2023-08-12T03:46:37;25.40;59.90
51815;DHT22;37874;53.158;6.766;2023-08-12T03:49:03;25.40;59.80
51815;DHT22;37874;53.158;6.766;2023-08-12T03:51:29;25.40;59.80
51815;DHT22;37874;53.158;6.766;2023-08-12T03:53:54;25.40;59.80
51815;DHT22;37874;53.158;6.766;2023-08-12T03:56:20;25.30;59.70
51815;DHT22;37874;53.158;6.766;2023-08-12T03:58:46;25.40;59.80
51815;DHT22;37874;53.158;6.766;2023-08-12T04:01:11;25.40;59.80
51815;DHT22;37874;53.158;6.766;2023-08-12T04:03:37;25.30;59.70
51815;DHT22;37874;53.158;6.766;2023-08-12T04:06:02;25.40;59.80
51815;DHT22;37874;53.158;6.766;2023-08-12T04:08:28;25.30;59.70
51815;DHT22;37874;53.158;6.766;2023-08-12T04:10:54;25.40;59.80
51815;DHT22;37874;53.158;6.766;2023-08-12T04:13:20;25.10;59.60
51815;DHT22;37874;53.158;6.766;2023-08-12T04:15:50;25.40;59.80
51815;DHT22;37874;53.158;6.766;2023-08-12T04:18:16;25.40;59.80
51815;DHT22;37874;53.158;6.766;2023-08-12T04:20:42;25.40;59.80
51815;DHT22;37874;53.158;6.766;2023-08-12T04:23:08;25.40;59.90
51815;DHT22;37874;53.158;6.766;2023-08-12T04:25:33;25.40;59.80
51815;DHT22;37874;53.158;6.766;2023-08-12T04:27:59;25.20;59.60
51815;DHT22;37874;53.158;6.766;2023-08-12T04:30:24;25.40;59.80
51815;DHT22;37874;53.158;6.766;2023-08-12T04:32:50;25.30;59.70
51815;DHT22;37874;53.158;6.766;2023-08-12T04:35:16;25.30;59.70
51815;DHT22;37874;53.158;6.766;2023-08-12T04:37:41;25.40;59.70
51815;DHT22;37874;53.158;6.766;2023-08-12T04:40:08;25.30;59.70
51815;DHT22;37874;53.158;6.766;2023-08-12T04:42:34;25.30;59.60
51815;DHT22;37874;53.158;6.766;2023-08-12T04:44:59;25.30;59.60
51815;DHT22;37874;53.158;6.766;2023-08-12T04:47:25;25.30;59.60
51815;DHT22;37874;53.158;6.766;2023-08-12T04:49:51;25.30;60.20
51815;DHT22;37874;53.158;6.766;2023-08-12T04:52:17;25.30;59.70
51815;DHT22;37874;53.158;6.766;2023-08-12T04:54:43;25.30;59.60
51815;DHT22;37874;53.158;6.766;2023-08-12T04:57:08;25.20;59.50
51815;DHT22;37874;53.158;6.766;2023-08-12T04:59:34;25.30;59.60
51815;DHT22;37874;53.158;6.766;2023-08-12T05:02:00;25.30;59.60
51815;DHT22;37874;53.158;6.766;2023-08-12T05:04:25;25.30;59.60
51815;DHT22;37874;53.158;6.766;2023-08-12T05:06:51;25.30;59.60
51815;DHT22;37874;53.158;6.766;2023-08-12T05:09:17;25.30;59.60
51815;DHT22;37874;53.158;6.766;2023-08-12T05:11:42;25.30;59.60
51815;DHT22;37874;53.158;6.766;2023-08-12T05:14:08;25.30;59.50
51815;DHT22;37874;53.158;6.766;2023-08-12T05:16:34;25.30;59.60
51815;DHT22;37874;53.158;6.766;2023-08-12T05:19:00;25.30;59.50
51815;DHT22;37874;53.158;6.766;2023-08-12T05:21:26;25.30;59.50
51815;DHT22;37874;53.158;6.766;2023-08-12T05:23:52;25.40;59.60
51815;DHT22;37874;53.158;6.766;2023-08-12T05:26:17;25.30;59.50
51815;DHT22;37874;53.158;6.766;2023-08-12T05:28:43;25.30;59.50
51815;DHT22;37874;53.158;6.766;2023-08-12T05:31:09;25.30;59.50
51815;DHT22;37874;53.158;6.766;2023-08-12T05:33:34;25.40;59.60
51815;DHT22;37874;53.158;6.766;2023-08-12T05:36:00;25.40;59.50
51815;DHT22;37874;53.158;6.766;2023-08-12T05:38:26;25.40;59.40
51815;DHT22;37874;53.158;6.766;2023-08-12T05:40:51;25.40;59.30
51815;DHT22;37874;53.158;6.766;2023-08-12T05:43:17;25.50;59.20
51815;DHT22;37874;53.158;6.766;2023-08-12T05:45:42;25.50;59.10
51815;DHT22;37874;53.158;6.766;2023-08-12T05:48:08;25.70;59.10
51815;DHT22;37874;53.158;6.766;2023-08-12T05:50:34;25.50;58.90
51815;DHT22;37874;53.158;6.766;2023-08-12T05:52:59;25.60;58.90
51815;DHT22;37874;53.158;6.766;2023-08-12T05:55:25;25.60;58.80
51815;DHT22;37874;53.158;6.766;2023-08-12T05:57:51;25.60;58.70
51815;DHT22;37874;53.158;6.766;2023-08-12T06:00:16;25.70;58.70
51815;DHT22;37874;53.158;6.766;2023-08-12T06:02:42;25.70;58.60
51815;DHT22;37874;53.158;6.766;2023-08-12T06:05:08;25.60;58.50
51815;DHT22;37874;53.158;6.766;2023-08-12T06:07:34;25.70;58.50
51815;DHT22;37874;53.158;6.766;2023-08-12T06:10:00;25.80;58.50
51815;DHT22;37874;53.158;6.766;2023-08-12T06:12:26;25.80;58.40
51815;DHT22;37874;53.158;6.766;2023-08-12T06:14:51;25.70;58.20
51815;DHT22;37874;53.158;6.766;2023-08-12T06:17:17;25.90;58.30
51815;DHT22;37874;53.158;6.766;2023-08-12T06:19:42;25.90;58.30
51815;DHT22;37874;53.158;6.766;2023-08-12T06:22:08;25.90;58.10
51815;DHT22;37874;53.158;6.766;2023-08-12T06:24:34;25.90;58.00
51815;DHT22;37874;53.158;6.766;2023-08-12T06:26:59;25.90;57.90
51815;DHT22;37874;53.158;6.766;2023-08-12T06:29:25;26.00;58.00
51815;DHT22;37874;53.158;6.766;2023-08-12T06:31:52;25.90;57.80
51815;DHT22;37874;53.158;6.766;2023-08-12T06:34:18;25.90;57.80
51815;DHT22;37874;53.158;6.766;2023-08-12T06:36:43;26.00;57.80
51815;DHT22;37874;53.158;6.766;2023-08-12T06:39:09;26.00;57.70
51815;DHT22;37874;53.158;6.766;2023-08-12T06:41:35;26.00;57.70
51815;DHT22;37874;53.158;6.766;2023-08-12T06:44:00;26.20;57.80
51815;DHT22;37874;53.158;6.766;2023-08-12T06:46:26;26.00;57.60
51815;DHT22;37874;53.158;6.766;2023-08-12T06:48:52;26.00;57.60
51815;DHT22;37874;53.158;6.766;2023-08-12T06:51:17;25.90;57.60
51815;DHT22;37874;53.158;6.766;2023-08-12T06:53:43;26.00;57.80
51815;DHT22;37874;53.158;6.766;2023-08-12T06:56:09;26.00;57.60
51815;DHT22;37874;53.158;6.766;2023-08-12T06:58:34;25.60;57.20
51815;DHT22;37874;53.158;6.766;2023-08-12T07:01:00;26.10;57.50
51815;DHT22;37874;53.158;6.766;2023-08-12T07:03:26;26.00;57.40
51815;DHT22;37874;53.158;6.766;2023-08-12T07:05:53;26.10;57.40
51815;DHT22;37874;53.158;6.766;2023-08-12T07:08:19;26.10;57.40
51815;DHT22;37874;53.158;6.766;2023-08-12T07:10:44;26.10;57.90
51815;DHT22;37874;53.158;6.766;2023-08-12T07:13:10;26.10;57.30
51815;DHT22;37874;53.158;6.766;2023-08-12T07:15:36;26.10;57.30
51815;DHT22;37874;53.158;6.766;2023-08-12T07:18:01;26.40;57.60
51815;DHT22;37874;53.158;6.766;2023-08-12T07:20:27;26.10;57.30
51815;DHT22;37874;53.158;6.766;2023-08-12T07:22:53;26.10;57.40
51815;DHT22;37874;53.158;6.766;2023-08-12T07:25:18;26.10;57.30
51815;DHT22;37874;53.158;6.766;2023-08-12T07:27:44;26.10;57.30
51815;DHT22;37874;53.158;6.766;2023-08-12T07:30:10;26.00;57.20
51815;DHT22;37874;53.158;6.766;2023-08-12T07:32:38;26.10;57.30
51815;DHT22;37874;53.158;6.766;2023-08-12T07:35:05;26.00;57.30
51815;DHT22;37874;53.158;6.766;2023-08-12T07:37:33;26.00;57.30
51815;DHT22;37874;53.158;6.766;2023-08-12T07:39:59;26.10;57.40
51815;DHT22;37874;53.158;6.766;2023-08-12T07:42:25;26.00;57.30
51815;DHT22;37874;53.158;6.766;2023-08-12T07:44:50;26.10;57.30
51815;DHT22;37874;53.158;6.766;2023-08-12T07:47:16;26.10;57.40
51815;DHT22;37874;53.158;6.766;2023-08-12T07:49:42;26.10;57.40
51815;DHT22;37874;53.158;6.766;2023-08-12T07:52:08;26.10;57.40
51815;DHT22;37874;53.158;6.766;2023-08-12T07:54:33;26.10;57.30
51815;DHT22;37874;53.158;6.766;2023-08-12T07:56:59;26.10;57.30
51815;DHT22;37874;53.158;6.766;2023-08-12T07:59:25;26.10;57.30
51815;DHT22;37874;53.158;6.766;2023-08-12T08:01:51;26.10;57.30
51815;DHT22;37874;53.158;6.766;2023-08-12T08:04:17;26.10;57.20
51815;DHT22;37874;53.158;6.766;2023-08-12T08:06:43;26.10;57.20
51815;DHT22;37874;53.158;6.766;2023-08-12T08:09:09;26.10;57.20
51815;DHT22;37874;53.158;6.766;2023-08-12T08:11:35;26.10;57.20
51815;DHT22;37874;53.158;6.766;2023-08-12T08:14:00;26.20;57.20
51815;DHT22;37874;53.158;6.766;2023-08-12T08:16:26;26.10;57.10
51815;DHT22;37874;53.158;6.766;2023-08-12T08:18:52;26.20;57.20
51815;DHT22;37874;53.158;6.766;2023-08-12T08:21:18;26.20;57.20
51815;DHT22;37874;53.158;6.766;2023-08-12T08:23:44;26.10;57.10
51815;DHT22;37874;53.158;6.766;2023-08-12T08:26:09;26.10;57.10
51815;DHT22;37874;53.158;6.766;2023-08-12T08:28:35;26.20;57.20
51815;DHT22;37874;53.158;6.766;2023-08-12T08:31:01;26.20;57.20
51815;DHT22;37874;53.158;6.766;2023-08-12T08:33:26;26.20;57.10
51815;DHT22;37874;53.158;6.766;2023-08-12T08:35:53;26.20;57.10
51815;DHT22;37874;53.158;6.766;2023-08-12T08:38:19;26.20;57.10
51815;DHT22;37874;53.158;6.766;2023-08-12T08:40:45;26.20;57.10
51815;DHT22;37874;53.158;6.766;2023-08-12T08:43:13;26.20;57.10
51815;DHT22;37874;53.158;6.766;2023-08-12T08:45:41;26.20;57.10
51815;DHT22;37874;53.158;6.766;2023-08-12T08:48:10;26.20;57.10
51815;DHT22;37874;53.158;6.766;2023-08-12T08:50:36;26.30;57.20
51815;DHT22;37874;53.158;6.766;2023-08-12T08:53:04;26.20;57.10
51815;DHT22;37874;53.158;6.766;2023-08-12T08:55:31;26.20;57.00
51815;DHT22;37874;53.158;6.766;2023-08-12T08:57:57;26.20;57.10
51815;DHT22;37874;53.158;6.766;2023-08-12T09:00:24;26.20;57.10
51815;DHT22;37874;53.158;6.766;2023-08-12T09:02:50;26.20;57.10
51815;DHT22;37874;53.158;6.766;2023-08-12T09:05:17;26.20;57.10
51815;DHT22;37874;53.158;6.766;2023-08-12T09:07:43;26.20;57.10
51815;DHT22;37874;53.158;6.766;2023-08-12T09:10:11;26.20;57.10
51815;DHT22;37874;53.158;6.766;2023-08-12T09:12:37;26.20;57.20
51815;DHT22;37874;53.158;6.766;2023-08-12T09:15:04;26.20;57.80
51815;DHT22;37874;53.158;6.766;2023-08-12T09:17:31;26.20;57.30
51815;DHT22;37874;53.158;6.766;2023-08-12T09:19:58;26.20;57.30
51815;DHT22;37874;53.158;6.766;2023-08-12T09:22:24;26.20;57.40
51815;DHT22;37874;53.158;6.766;2023-08-12T09:24:56;26.10;57.40
51815;DHT22;37874;53.158;6.766;2023-08-12T09:27:22;26.10;57.40
51815;DHT22;37874;53.158;6.766;2023-08-12T09:29:47;26.20;57.50
51815;DHT22;37874;53.158;6.766;2023-08-12T09:32:20;26.10;57.50
51815;DHT22;37874;53.158;6.766;2023-08-12T09:34:47;26.10;57.50
51815;DHT22;37874;53.158;6.766;2023-08-12T09:37:14;26.10;57.50
51815;DHT22;37874;53.158;6.766;2023-08-12T09:39:40;26.30;57.60
51815;DHT22;37874;53.158;6.766;2023-08-12T09:42:06;26.20;57.60
51815;DHT22;37874;53.158;6.766;2023-08-12T09:44:35;26.10;57.50
51815;DHT22;37874;53.158;6.766;2023-08-12T09:47:01;26.10;57.60
51815;DHT22;37874;53.158;6.766;2023-08-12T09:49:26;26.20;57.70
51815;DHT22;37874;53.158;6.766;2023-08-12T09:51:53;26.10;57.60
51815;DHT22;37874;53.158;6.766;2023-08-12T09:54:19;26.10;57.60
51815;DHT22;37874;53.158;6.766;2023-08-12T09:56:48;26.10;57.70
51815;DHT22;37874;53.158;6.766;2023-08-12T09:59:18;26.20;57.70
51815;DHT22;37874;53.158;6.766;2023-08-12T10:01:46;26.10;57.60
51815;DHT22;37874;53.158;6.766;2023-08-12T10:04:14;26.10;57.60
51815;DHT22;37874;53.158;6.766;2023-08-12T10:06:42;26.10;58.00
51815;DHT22;37874;53.158;6.766;2023-08-12T10:09:09;26.10;58.00
51815;DHT22;37874;53.158;6.766;2023-08-12T10:11:40;26.20;58.10
51815;DHT22;37874;53.158;6.766;2023-08-12T10:14:06;26.10;57.90
51815;DHT22;37874;53.158;6.766;2023-08-12T10:16:34;25.60;57.60
51815;DHT22;37874;53.158;6.766;2023-08-12T10:19:06;26.10;57.90
51815;DHT22;37874;53.158;6.766;2023-08-12T10:21:37;26.10;57.90
51815;DHT22;37874;53.158;6.766;2023-08-12T10:24:05;26.10;57.90
51815;DHT22;37874;53.158;6.766;2023-08-12T10:26:32;26.10;57.90
51815;DHT22;37874;53.158;6.766;2023-08-12T10:28:59;26.10;57.90
51815;DHT22;37874;53.158;6.766;2023-08-12T10:31:27;26.10;57.90
51815;DHT22;37874;53.158;6.766;2023-08-12T10:33:59;26.10;57.90
51815;DHT22;37874;53.158;6.766;2023-08-12T10:36:26;26.10;57.90
51815;DHT22;37874;53.158;6.766;2023-08-12T10:38:52;26.10;57.90
51815;DHT22;37874;53.158;6.766;2023-08-12T10:41:23;26.10;57.90
51815;DHT22;37874;53.158;6.766;2023-08-12T10:43:57;26.10;58.00
51815;DHT22;37874;53.158;6.766;2023-08-12T10:46:32;26.10;58.10
51815;DHT22;37874;53.158;6.766;2023-08-12T10:49:09;26.20;58.10
51815;DHT22;37874;53.158;6.766;2023-08-12T10:54:25;26.20;58.00
51815;DHT22;37874;53.158;6.766;2023-08-12T11:02:30;26.20;58.00
51815;DHT22;37874;53.158;6.766;2023-08-12T11:05:07;26.20;57.90
51815;DHT22;37874;53.158;6.766;2023-08-12T11:11:23;25.60;57.50
51815;DHT22;37874;53.158;6.766;2023-08-12T11:13:58;26.30;57.90
51815;DHT22;37874;53.158;6.766;2023-08-12T11:16:39;26.30;57.80
51815;DHT22;37874;53.158;6.766;2023-08-12T11:19:08;26.30;57.80
51815;DHT22;37874;53.158;6.766;2023-08-12T11:21:36;26.30;57.70
51815;DHT22;37874;53.158;6.766;2023-08-12T11:24:02;26.30;57.60
51815;DHT22;37874;53.158;6.766;2023-08-12T11:26:28;26.30;57.60
51815;DHT22;37874;53.158;6.766;2023-08-12T11:28:56;26.30;57.50
51815;DHT22;37874;53.158;6.766;2023-08-12T11:31:21;26.30;57.60
51815;DHT22;37874;53.158;6.766;2023-08-12T11:33:48;26.30;57.50
51815;DHT22;37874;53.158;6.766;2023-08-12T11:36:14;26.30;57.50
51815;DHT22;37874;53.158;6.766;2023-08-12T11:38:42;26.30;57.50
51815;DHT22;37874;53.158;6.766;2023-08-12T11:41:08;26.30;57.50
51815;DHT22;37874;53.158;6.766;2023-08-12T11:43:34;26.30;57.60
51815;DHT22;37874;53.158;6.766;2023-08-12T11:46:00;26.30;57.50
51815;DHT22;37874;53.158;6.766;2023-08-12T11:48:29;26.00;57.30
51815;DHT22;37874;53.158;6.766;2023-08-12T11:50:55;26.30;57.50
51815;DHT22;37874;53.158;6.766;2023-08-12T11:53:23;26.30;57.50
51815;DHT22;37874;53.158;6.766;2023-08-12T11:55:48;26.30;57.40
51815;DHT22;37874;53.158;6.766;2023-08-12T11:58:15;26.40;57.60
51815;DHT22;37874;53.158;6.766;2023-08-12T12:00:46;26.40;57.80
51815;DHT22;37874;53.158;6.766;2023-08-12T12:03:11;26.40;58.00
51815;DHT22;37874;53.158;6.766;2023-08-12T12:05:37;25.90;57.70
51815;DHT22;37874;53.158;6.766;2023-08-12T12:08:04;26.40;58.10
51815;DHT22;37874;53.158;6.766;2023-08-12T12:10:39;26.40;58.20
51815;DHT22;37874;53.158;6.766;2023-08-12T12:13:47;26.10;58.10
51815;DHT22;37874;53.158;6.766;2023-08-12T12:16:15;26.40;58.30
51815;DHT22;37874;53.158;6.766;2023-08-12T12:18:41;26.40;58.40
51815;DHT22;37874;53.158;6.766;2023-08-12T12:21:06;26.40;58.30
51815;DHT22;37874;53.158;6.766;2023-08-12T12:23:32;26.40;58.30
51815;DHT22;37874;53.158;6.766;2023-08-12T12:26:18;26.40;58.40
51815;DHT22;37874;53.158;6.766;2023-08-12T12:28:44;26.30;58.40
51815;DHT22;37874;53.158;6.766;2023-08-12T12:31:12;26.00;58.20
51815;DHT22;37874;53.158;6.766;2023-08-12T12:33:42;26.40;58.50
51815;DHT22;37874;53.158;6.766;2023-08-12T12:36:12;26.40;58.50
51815;DHT22;37874;53.158;6.766;2023-08-12T12:38:47;26.10;58.20
51815;DHT22;37874;53.158;6.766;2023-08-12T12:41:21;26.40;58.50
51815;DHT22;37874;53.158;6.766;2023-08-12T12:44:00;26.00;58.20
51815;DHT22;37874;53.158;6.766;2023-08-12T12:49:32;26.30;58.50
51815;DHT22;37874;53.158;6.766;2023-08-12T12:52:35;26.40;58.60
51815;DHT22;37874;53.158;6.766;2023-08-12T12:55:30;26.40;58.50
51815;DHT22;37874;53.158;6.766;2023-08-12T13:01:28;26.50;58.30
51815;DHT22;37874;53.158;6.766;2023-08-12T13:03:54;26.50;58.30
51815;DHT22;37874;53.158;6.766;2023-08-12T13:06:20;26.80;58.40
51815;DHT22;37874;53.158;6.766;2023-08-12T13:08:45;26.50;58.80
51815;DHT22;37874;53.158;6.766;2023-08-12T13:11:11;26.50;58.90
51815;DHT22;37874;53.158;6.766;2023-08-12T13:13:36;26.60;58.20
51815;DHT22;37874;53.158;6.766;2023-08-12T13:16:02;26.60;57.90
51815;DHT22;37874;53.158;6.766;2023-08-12T13:18:28;26.70;57.80
51815;DHT22;37874;53.158;6.766;2023-08-12T13:20:53;26.80;57.70
51815;DHT22;37874;53.158;6.766;2023-08-12T13:23:19;26.90;57.60
51815;DHT22;37874;53.158;6.766;2023-08-12T13:25:45;27.10;57.30
51815;DHT22;37874;53.158;6.766;2023-08-12T13:28:10;27.30;56.80
51815;DHT22;37874;53.158;6.766;2023-08-12T13:30:36;27.60;55.90
51815;DHT22;37874;53.158;6.766;2023-08-12T13:33:02;27.80;55.20
51815;DHT22;37874;53.158;6.766;2023-08-12T13:35:30;28.10;54.80
51815;DHT22;37874;53.158;6.766;2023-08-12T13:38:02;28.20;54.10
51815;DHT22;37874;53.158;6.766;2023-08-12T13:40:27;28.40;53.80
51815;DHT22;37874;53.158;6.766;2023-08-12T13:42:53;28.60;53.40
51815;DHT22;37874;53.158;6.766;2023-08-12T13:45:19;28.70;53.00
51815;DHT22;37874;53.158;6.766;2023-08-12T13:47:45;29.10;52.90
51815;DHT22;37874;53.158;6.766;2023-08-12T13:50:11;28.90;52.50
51815;DHT22;37874;53.158;6.766;2023-08-12T13:52:37;29.00;52.30
51815;DHT22;37874;53.158;6.766;2023-08-12T13:55:03;29.10;52.10
51815;DHT22;37874;53.158;6.766;2023-08-12T13:57:29;29.20;51.90
51815;DHT22;37874;53.158;6.766;2023-08-12T13:59:55;29.30;51.70
51815;DHT22;37874;53.158;6.766;2023-08-12T14:02:20;29.40;51.50
51815;DHT22;37874;53.158;6.766;2023-08-12T14:04:46;29.50;51.30
51815;DHT22;37874;53.158;6.766;2023-08-12T14:07:12;29.50;51.00
51815;DHT22;37874;53.158;6.766;2023-08-12T14:09:37;29.60;51.00
51815;DHT22;37874;53.158;6.766;2023-08-12T14:12:03;29.60;50.80
51815;DHT22;37874;53.158;6.766;2023-08-12T14:14:30;29.70;50.60
51815;DHT22;37874;53.158;6.766;2023-08-12T14:16:56;29.80;50.60
51815;DHT22;37874;53.158;6.766;2023-08-12T14:19:21;29.90;50.40
51815;DHT22;37874;53.158;6.766;2023-08-12T14:21:47;29.90;50.30
51815;DHT22;37874;53.158;6.766;2023-08-12T14:24:13;29.90;50.30
51815;DHT22;37874;53.158;6.766;2023-08-12T14:26:39;29.90;50.40
51815;DHT22;37874;53.158;6.766;2023-08-12T14:29:06;29.90;50.30
51815;DHT22;37874;53.158;6.766;2023-08-12T14:31:31;29.80;50.60
51815;DHT22;37874;53.158;6.766;2023-08-12T14:33:57;29.70;50.80
51815;DHT22;37874;53.158;6.766;2023-08-12T14:36:23;29.80;50.80
51815;DHT22;37874;53.158;6.766;2023-08-12T14:38:50;29.60;50.90
51815;DHT22;37874;53.158;6.766;2023-08-12T14:41:15;29.50;51.30
51815;DHT22;37874;53.158;6.766;2023-08-12T14:43:41;29.50;51.60
51815;DHT22;37874;53.158;6.766;2023-08-12T14:46:07;29.50;51.50
51815;DHT22;37874;53.158;6.766;2023-08-12T14:48:33;29.50;51.40
51815;DHT22;37874;53.158;6.766;2023-08-12T14:50:59;29.60;51.30
51815;DHT22;37874;53.158;6.766;2023-08-12T14:53:25;29.60;51.20
51815;DHT22;37874;53.158;6.766;2023-08-12T14:55:51;29.50;51.30
51815;DHT22;37874;53.158;6.766;2023-08-12T14:58:16;29.60;51.40
51815;DHT22;37874;53.158;6.766;2023-08-12T15:00:42;29.60;51.20
51815;DHT22;37874;53.158;6.766;2023-08-12T15:03:08;29.70;51.00
51815;DHT22;37874;53.158;6.766;2023-08-12T15:05:36;30.40;51.20
51815;DHT22;37874;53.158;6.766;2023-08-12T15:08:01;29.90;50.60
51815;DHT22;37874;53.158;6.766;2023-08-12T15:10:28;30.10;50.50
51815;DHT22;37874;53.158;6.766;2023-08-12T15:12:55;30.10;50.20
51815;DHT22;37874;53.158;6.766;2023-08-12T15:15:20;30.10;50.20
51815;DHT22;37874;53.158;6.766;2023-08-12T15:17:46;30.20;50.30
51815;DHT22;37874;53.158;6.766;2023-08-12T15:20:11;30.20;50.20
51815;DHT22;37874;53.158;6.766;2023-08-12T15:22:37;30.20;50.10
51815;DHT22;37874;53.158;6.766;2023-08-12T15:25:03;30.30;50.00
51815;DHT22;37874;53.158;6.766;2023-08-12T15:27:29;30.30;49.90
51815;DHT22;37874;53.158;6.766;2023-08-12T15:29:55;30.30;50.00
51815;DHT22;37874;53.158;6.766;2023-08-12T15:32:21;30.30;50.10
51815;DHT22;37874;53.158;6.766;2023-08-12T15:34:47;30.30;50.00
51815;DHT22;37874;53.158;6.766;2023-08-12T15:37:13;30.30;49.90
51815;DHT22;37874;53.158;6.766;2023-08-12T15:39:38;30.40;49.90
51815;DHT22;37874;53.158;6.766;2023-08-12T15:42:05;30.40;49.90
51815;DHT22;37874;53.158;6.766;2023-08-12T15:44:31;30.50;49.80
51815;DHT22;37874;53.158;6.766;2023-08-12T15:46:56;30.50;49.80
51815;DHT22;37874;53.158;6.766;2023-08-12T15:49:22;30.50;49.70
51815;DHT22;37874;53.158;6.766;2023-08-12T15:51:47;30.60;49.60
51815;DHT22;37874;53.158;6.766;2023-08-12T15:54:13;30.70;49.50